sensor_id;sensor_type;location;lat;lon;timestamp;temperature;humidity
67529;DHT22;54366;51.980;5.856;2022-10-23T00:00:56;13.90;84.60
67529;DHT22;54366;51.980;5.856;2022-10-23T00:03:22;13.90;84.50
67529;DHT22;54366;51.980;5.856;2022-10-23T00:05:48;13.90;84.40
67529;DHT22;54366;51.980;5.856;2022-10-23T00:08:14;13.90;84.40
67529;DHT22;54366;51.980;5.856;2022-10-23T00:10:42;13.90;84.50
67529;DHT22;54366;51.980;5.856;2022-10-23T00:13:09;13.90;84.30
67529;DHT22;54366;51.980;5.856;2022-10-23T00:15:35;13.80;84.30
67529;DHT22;54366;51.980;5.856;2022-10-23T00:18:03;13.90;84.30
67529;DHT22;54366;51.980;5.856;2022-10-23T00:20:29;13.80;84.20
67529;DHT22;54366;51.980;5.856;2022-10-23T00:22:55;13.80;84.20
67529;DHT22;54366;51.980;5.856;2022-10-23T00:25:21;13.80;84.10
67529;DHT22;54366;51.980;5.856;2022-10-23T00:27:48;13.80;84.40
67529;DHT22;54366;51.980;5.856;2022-10-23T00:30:14;13.80;84.60
67529;DHT22;54366;51.980;5.856;2022-10-23T00:32:40;13.80;84.70
67529;DHT22;54366;51.980;5.856;2022-10-23T00:35:06;13.80;84.60
67529;DHT22;54366;51.980;5.856;2022-10-23T00:37:33;13.80;84.70
67529;DHT22;54366;51.980;5.856;2022-10-23T00:39:59;13.80;84.70
67529;DHT22;54366;51.980;5.856;2022-10-23T00:42:25;13.80;84.70
67529;DHT22;54366;51.980;5.856;2022-10-23T00:47:17;13.80;84.70
67529;DHT22;54366;51.980;5.856;2022-10-23T00:49:44;13.80;85.30
67529;DHT22;54366;51.980;5.856;2022-10-23T00:52:12;13.80;84.70
67529;DHT22;54366;51.980;5.856;2022-10-23T00:54:40;13.80;84.70
67529;DHT22;54366;51.980;5.856;2022-10-23T00:57:11;13.80;84.60
67529;DHT22;54366;51.980;5.856;2022-10-23T00:59:40;13.80;84.70
67529;DHT22;54366;51.980;5.856;2022-10-23T01:02:07;13.90;84.80
67529;DHT22;54366;51.980;5.856;2022-10-23T01:04:34;13.90;84.60
67529;DHT22;54366;51.980;5.856;2022-10-23T01:07:17;13.90;84.70
67529;DHT22;54366;51.980;5.856;2022-10-23T01:10:09;13.90;84.50
67529;DHT22;54366;51.980;5.856;2022-10-23T01:15:18;13.80;84.50
67529;DHT22;54366;51.980;5.856;2022-10-23T01:23:46;13.90;84.80
67529;DHT22;54366;51.980;5.856;2022-10-23T01:32:03;13.90;84.80
67529;DHT22;54366;51.980;5.856;2022-10-23T01:34:43;13.90;84.70
67529;DHT22;54366;51.980;5.856;2022-10-23T01:37:13;13.90;84.70
67529;DHT22;54366;51.980;5.856;2022-10-23T01:39:46;13.90;84.70
67529;DHT22;54366;51.980;5.856;2022-10-23T01:42:19;13.90;84.70
67529;DHT22;54366;51.980;5.856;2022-10-23T01:44:50;13.90;84.70
67529;DHT22;54366;51.980;5.856;2022-10-23T01:47:22;14.00;84.80
67529;DHT22;54366;51.980;5.856;2022-10-23T01:49:56;14.00;84.80
67529;DHT22;54366;51.980;5.856;2022-10-23T01:52:24;13.90;84.80
67529;DHT22;54366;51.980;5.856;2022-10-23T01:54:54;13.90;84.80
67529;DHT22;54366;51.980;5.856;2022-10-23T01:57:23;13.90;84.80
67529;DHT22;54366;51.980;5.856;2022-10-23T01:59:58;13.90;84.80
67529;DHT22;54366;51.980;5.856;2022-10-23T02:02:27;13.90;84.80
67529;DHT22;54366;51.980;5.856;2022-10-23T02:07:30;13.90;84.80
67529;DHT22;54366;51.980;5.856;2022-10-23T02:09:57;13.90;84.80
67529;DHT22;54366;51.980;5.856;2022-10-23T02:15:04;13.80;84.80
67529;DHT22;54366;51.980;5.856;2022-10-23T02:18:04;13.90;85.00
67529;DHT22;54366;51.980;5.856;2022-10-23T02:20:41;13.90;85.00
67529;DHT22;54366;51.980;5.856;2022-10-23T02:25:55;13.80;84.90
67529;DHT22;54366;51.980;5.856;2022-10-23T02:28:35;13.80;84.80
67529;DHT22;54366;51.980;5.856;2022-10-23T02:31:04;13.80;84.80
67529;DHT22;54366;51.980;5.856;2022-10-23T02:33:33;13.80;84.90
67529;DHT22;54366;51.980;5.856;2022-10-23T02:36:01;13.70;84.80
67529;DHT22;54366;51.980;5.856;2022-10-23T02:46:34;13.70;84.90
67529;DHT22;54366;51.980;5.856;2022-10-23T02:49:14;13.70;84.80
67529;DHT22;54366;51.980;5.856;2022-10-23T02:51:56;13.70;85.00
67529;DHT22;54366;51.980;5.856;2022-10-23T02:54:40;13.70;85.60
67529;DHT22;54366;51.980;5.856;2022-10-23T02:57:30;13.70;84.90
67529;DHT22;54366;51.980;5.856;2022-10-23T03:02:43;13.70;84.90
67529;DHT22;54366;51.980;5.856;2022-10-23T03:05:18;13.70;85.00
67529;DHT22;54366;51.980;5.856;2022-10-23T03:07:48;13.80;85.00
67529;DHT22;54366;51.980;5.856;2022-10-23T03:10:16;13.70;85.00
67529;DHT22;54366;51.980;5.856;2022-10-23T03:12:43;13.70;85.10
67529;DHT22;54366;51.980;5.856;2022-10-23T03:15:10;13.80;85.10
67529;DHT22;54366;51.980;5.856;2022-10-23T03:17:37;13.80;85.10
67529;DHT22;54366;51.980;5.856;2022-10-23T03:20:06;13.70;85.00
67529;DHT22;54366;51.980;5.856;2022-10-23T03:22:32;13.70;85.60
67529;DHT22;54366;51.980;5.856;2022-10-23T03:25:00;13.70;85.10
67529;DHT22;54366;51.980;5.856;2022-10-23T03:27:28;13.70;85.00
67529;DHT22;54366;51.980;5.856;2022-10-23T03:29:55;13.70;85.00
67529;DHT22;54366;51.980;5.856;2022-10-23T03:32:21;13.70;85.00
67529;DHT22;54366;51.980;5.856;2022-10-23T03:34:48;13.70;85.00
67529;DHT22;54366;51.980;5.856;2022-10-23T03:37:14;13.70;85.10
67529;DHT22;54366;51.980;5.856;2022-10-23T03:39:40;13.70;85.10
67529;DHT22;54366;51.980;5.856;2022-10-23T03:42:07;13.70;85.10
67529;DHT22;54366;51.980;5.856;2022-10-23T03:44:33;13.70;85.10
67529;DHT22;54366;51.980;5.856;2022-10-23T03:47:00;13.70;85.20
67529;DHT22;54366;51.980;5.856;2022-10-23T03:49:26;13.70;85.20
67529;DHT22;54366;51.980;5.856;2022-10-23T03:51:52;13.70;85.10
67529;DHT22;54366;51.980;5.856;2022-10-23T03:54:25;13.70;85.20
67529;DHT22;54366;51.980;5.856;2022-10-23T03:56:53;13.70;85.20
67529;DHT22;54366;51.980;5.856;2022-10-23T03:59:20;13.70;85.20
67529;DHT22;54366;51.980;5.856;2022-10-23T04:01:48;13.70;85.20
67529;DHT22;54366;51.980;5.856;2022-10-23T04:04:14;13.60;85.80
67529;DHT22;54366;51.980;5.856;2022-10-23T04:06:42;13.70;85.30
67529;DHT22;54366;51.980;5.856;2022-10-23T04:09:08;13.70;85.30
67529;DHT22;54366;51.980;5.856;2022-10-23T04:11:35;13.70;85.20
67529;DHT22;54366;51.980;5.856;2022-10-23T04:14:01;13.70;85.20
67529;DHT22;54366;51.980;5.856;2022-10-23T04:16:27;13.70;85.30
67529;DHT22;54366;51.980;5.856;2022-10-23T04:18:53;13.70;85.30
67529;DHT22;54366;51.980;5.856;2022-10-23T04:21:20;13.70;85.30
67529;DHT22;54366;51.980;5.856;2022-10-23T04:23:46;13.70;85.50
67529;DHT22;54366;51.980;5.856;2022-10-23T04:26:15;13.70;85.40
67529;DHT22;54366;51.980;5.856;2022-10-23T04:28:41;13.70;85.30
67529;DHT22;54366;51.980;5.856;2022-10-23T04:31:07;13.70;85.30
67529;DHT22;54366;51.980;5.856;2022-10-23T04:33:34;13.70;85.40
67529;DHT22;54366;51.980;5.856;2022-10-23T04:36:00;13.70;85.30
67529;DHT22;54366;51.980;5.856;2022-10-23T04:38:26;13.70;85.60
67529;DHT22;54366;51.980;5.856;2022-10-23T04:40:52;13.70;85.60
67529;DHT22;54366;51.980;5.856;2022-10-23T04:43:21;13.70;85.50
67529;DHT22;54366;51.980;5.856;2022-10-23T04:45:48;13.70;85.60
67529;DHT22;54366;51.980;5.856;2022-10-23T04:48:15;13.70;85.60
67529;DHT22;54366;51.980;5.856;2022-10-23T04:51:03;13.80;85.70
67529;DHT22;54366;51.980;5.856;2022-10-23T04:53:59;13.80;85.70
67529;DHT22;54366;51.980;5.856;2022-10-23T04:57:04;13.80;85.70
67529;DHT22;54366;51.980;5.856;2022-10-23T04:59:46;13.80;85.90
67529;DHT22;54366;51.980;5.856;2022-10-23T05:02:12;13.80;85.90
67529;DHT22;54366;51.980;5.856;2022-10-23T05:04:38;13.80;85.80
67529;DHT22;54366;51.980;5.856;2022-10-23T05:07:23;13.80;86.10
67529;DHT22;54366;51.980;5.856;2022-10-23T05:10:01;13.80;85.90
67529;DHT22;54366;51.980;5.856;2022-10-23T05:12:37;13.90;86.00
67529;DHT22;54366;51.980;5.856;2022-10-23T05:15:03;13.90;86.20
67529;DHT22;54366;51.980;5.856;2022-10-23T05:17:35;13.80;86.10
67529;DHT22;54366;51.980;5.856;2022-10-23T05:20:05;13.90;86.00
67529;DHT22;54366;51.980;5.856;2022-10-23T05:22:35;13.90;86.10
67529;DHT22;54366;51.980;5.856;2022-10-23T05:25:05;13.90;86.00
67529;DHT22;54366;51.980;5.856;2022-10-23T05:27:33;13.90;86.00
67529;DHT22;54366;51.980;5.856;2022-10-23T05:30:00;13.90;85.90
67529;DHT22;54366;51.980;5.856;2022-10-23T05:32:31;13.90;86.40
67529;DHT22;54366;51.980;5.856;2022-10-23T05:35:00;14.00;86.00
67529;DHT22;54366;51.980;5.856;2022-10-23T05:37:30;14.00;86.10
67529;DHT22;54366;51.980;5.856;2022-10-23T05:40:07;13.90;86.00
67529;DHT22;54366;51.980;5.856;2022-10-23T05:42:35;14.00;86.00
67529;DHT22;54366;51.980;5.856;2022-10-23T05:45:01;14.00;86.00
67529;DHT22;54366;51.980;5.856;2022-10-23T05:47:46;14.00;85.90
67529;DHT22;54366;51.980;5.856;2022-10-23T05:50:37;14.00;86.00
67529;DHT22;54366;51.980;5.856;2022-10-23T05:53:22;14.00;85.80
67529;DHT22;54366;51.980;5.856;2022-10-23T05:55:52;14.10;85.90
67529;DHT22;54366;51.980;5.856;2022-10-23T05:58:37;14.10;86.10
67529;DHT22;54366;51.980;5.856;2022-10-23T06:01:26;14.10;86.00
67529;DHT22;54366;51.980;5.856;2022-10-23T06:04:00;14.10;86.10
67529;DHT22;54366;51.980;5.856;2022-10-23T06:06:45;14.10;86.10
67529;DHT22;54366;51.980;5.856;2022-10-23T06:09:13;14.20;86.20
67529;DHT22;54366;51.980;5.856;2022-10-23T06:11:41;14.10;86.00
67529;DHT22;54366;51.980;5.856;2022-10-23T06:14:12;14.20;86.30
67529;DHT22;54366;51.980;5.856;2022-10-23T06:16:39;14.10;86.30
67529;DHT22;54366;51.980;5.856;2022-10-23T06:19:09;14.20;86.40
67529;DHT22;54366;51.980;5.856;2022-10-23T06:21:38;14.20;86.40
67529;DHT22;54366;51.980;5.856;2022-10-23T06:24:06;14.20;86.30
67529;DHT22;54366;51.980;5.856;2022-10-23T06:26:47;14.20;86.30
67529;DHT22;54366;51.980;5.856;2022-10-23T06:29:21;14.20;86.40
67529;DHT22;54366;51.980;5.856;2022-10-23T06:31:49;14.20;86.40
67529;DHT22;54366;51.980;5.856;2022-10-23T06:34:16;14.20;86.40
67529;DHT22;54366;51.980;5.856;2022-10-23T06:36:44;14.20;86.30
67529;DHT22;54366;51.980;5.856;2022-10-23T06:39:27;14.20;86.40
67529;DHT22;54366;51.980;5.856;2022-10-23T06:42:13;14.30;86.40
67529;DHT22;54366;51.980;5.856;2022-10-23T06:44:51;14.30;86.40
67529;DHT22;54366;51.980;5.856;2022-10-23T06:47:36;14.30;86.40
67529;DHT22;54366;51.980;5.856;2022-10-23T06:50:21;14.30;86.40
67529;DHT22;54366;51.980;5.856;2022-10-23T06:52:47;14.30;86.40
67529;DHT22;54366;51.980;5.856;2022-10-23T06:55:17;14.30;86.40
67529;DHT22;54366;51.980;5.856;2022-10-23T06:57:43;14.40;86.50
67529;DHT22;54366;51.980;5.856;2022-10-23T07:00:10;14.40;86.40
67529;DHT22;54366;51.980;5.856;2022-10-23T07:02:45;14.40;86.40
67529;DHT22;54366;51.980;5.856;2022-10-23T07:05:11;14.40;86.50
67529;DHT22;54366;51.980;5.856;2022-10-23T07:07:37;14.40;86.30
67529;DHT22;54366;51.980;5.856;2022-10-23T07:10:04;14.40;86.30
67529;DHT22;54366;51.980;5.856;2022-10-23T07:12:41;14.40;86.30
67529;DHT22;54366;51.980;5.856;2022-10-23T07:15:36;14.50;86.30
67529;DHT22;54366;51.980;5.856;2022-10-23T07:18:04;14.50;86.30
67529;DHT22;54366;51.980;5.856;2022-10-23T07:20:47;14.50;86.30
67529;DHT22;54366;51.980;5.856;2022-10-23T07:23:14;14.50;86.10
67529;DHT22;54366;51.980;5.856;2022-10-23T07:25:41;14.50;86.30
67529;DHT22;54366;51.980;5.856;2022-10-23T07:28:08;14.50;86.20
67529;DHT22;54366;51.980;5.856;2022-10-23T07:30:35;14.50;86.10
67529;DHT22;54366;51.980;5.856;2022-10-23T07:33:02;14.60;86.10
67529;DHT22;54366;51.980;5.856;2022-10-23T07:35:34;14.60;86.20
67529;DHT22;54366;51.980;5.856;2022-10-23T07:38:07;14.60;86.10
67529;DHT22;54366;51.980;5.856;2022-10-23T07:40:37;14.60;86.00
67529;DHT22;54366;51.980;5.856;2022-10-23T07:43:05;14.70;86.10
67529;DHT22;54366;51.980;5.856;2022-10-23T07:45:32;14.70;86.00
67529;DHT22;54366;51.980;5.856;2022-10-23T07:48:04;14.70;86.00
67529;DHT22;54366;51.980;5.856;2022-10-23T07:50:46;14.80;86.10
67529;DHT22;54366;51.980;5.856;2022-10-23T07:53:19;14.80;86.00
67529;DHT22;54366;51.980;5.856;2022-10-23T07:55:57;14.80;86.00
67529;DHT22;54366;51.980;5.856;2022-10-23T07:58:27;14.80;85.90
67529;DHT22;54366;51.980;5.856;2022-10-23T08:01:22;14.90;86.00
67529;DHT22;54366;51.980;5.856;2022-10-23T08:03:49;14.80;85.90
67529;DHT22;54366;51.980;5.856;2022-10-23T08:06:16;14.90;85.90
67529;DHT22;54366;51.980;5.856;2022-10-23T08:08:43;14.90;85.90
67529;DHT22;54366;51.980;5.856;2022-10-23T08:11:12;14.90;85.80
67529;DHT22;54366;51.980;5.856;2022-10-23T08:13:48;14.90;85.70
67529;DHT22;54366;51.980;5.856;2022-10-23T08:16:15;15.00;85.80
67529;DHT22;54366;51.980;5.856;2022-10-23T08:18:59;15.00;85.80
67529;DHT22;54366;51.980;5.856;2022-10-23T08:21:27;15.00;85.70
67529;DHT22;54366;51.980;5.856;2022-10-23T08:23:55;15.00;85.70
67529;DHT22;54366;51.980;5.856;2022-10-23T08:26:22;15.10;85.70
67529;DHT22;54366;51.980;5.856;2022-10-23T08:28:51;15.10;85.70
67529;DHT22;54366;51.980;5.856;2022-10-23T08:31:19;15.10;85.60
67529;DHT22;54366;51.980;5.856;2022-10-23T08:34:08;15.10;85.60
67529;DHT22;54366;51.980;5.856;2022-10-23T08:36:35;15.10;85.60
67529;DHT22;54366;51.980;5.856;2022-10-23T08:39:04;15.20;85.60
67529;DHT22;54366;51.980;5.856;2022-10-23T08:41:34;15.20;85.60
67529;DHT22;54366;51.980;5.856;2022-10-23T08:49:59;15.30;85.30
67529;DHT22;54366;51.980;5.856;2022-10-23T08:55:14;15.40;85.30
67529;DHT22;54366;51.980;5.856;2022-10-23T08:58:09;15.40;85.20
67529;DHT22;54366;51.980;5.856;2022-10-23T09:00:41;15.50;85.20
67529;DHT22;54366;51.980;5.856;2022-10-23T09:03:10;15.50;85.20
67529;DHT22;54366;51.980;5.856;2022-10-23T09:16:28;15.70;84.80
67529;DHT22;54366;51.980;5.856;2022-10-23T09:19:01;15.80;84.80
67529;DHT22;54366;51.980;5.856;2022-10-23T09:21:28;15.80;84.70
67529;DHT22;54366;51.980;5.856;2022-10-23T09:23:55;15.90;84.70
67529;DHT22;54366;51.980;5.856;2022-10-23T09:26:22;15.90;84.30
67529;DHT22;54366;51.980;5.856;2022-10-23T09:29:01;15.80;84.20
67529;DHT22;54366;51.980;5.856;2022-10-23T09:31:31;15.90;84.00
67529;DHT22;54366;51.980;5.856;2022-10-23T09:33:59;15.90;84.10
67529;DHT22;54366;51.980;5.856;2022-10-23T09:36:27;15.90;84.10
67529;DHT22;54366;51.980;5.856;2022-10-23T09:38:56;16.00;84.10
67529;DHT22;54366;51.980;5.856;2022-10-23T09:41:38;16.00;84.10
67529;DHT22;54366;51.980;5.856;2022-10-23T09:46:50;16.00;84.00
67529;DHT22;54366;51.980;5.856;2022-10-23T09:49:32;16.00;84.00
67529;DHT22;54366;51.980;5.856;2022-10-23T09:54:32;16.10;84.10
67529;DHT22;54366;51.980;5.856;2022-10-23T10:00:18;16.10;83.80
67529;DHT22;54366;51.980;5.856;2022-10-23T10:03:19;16.10;83.90
67529;DHT22;54366;51.980;5.856;2022-10-23T10:06:02;16.20;83.90
67529;DHT22;54366;51.980;5.856;2022-10-23T10:08:43;16.20;83.80
67529;DHT22;54366;51.980;5.856;2022-10-23T10:11:39;16.20;83.80
67529;DHT22;54366;51.980;5.856;2022-10-23T10:17:16;16.30;83.50
67529;DHT22;54366;51.980;5.856;2022-10-23T10:27:38;16.50;83.10
67529;DHT22;54366;51.980;5.856;2022-10-23T10:41:27;16.70;82.40
67529;DHT22;54366;51.980;5.856;2022-10-23T10:43:59;16.70;82.10
67529;DHT22;54366;51.980;5.856;2022-10-23T10:49:39;16.80;82.40
67529;DHT22;54366;51.980;5.856;2022-10-23T10:55:32;16.80;82.00
67529;DHT22;54366;51.980;5.856;2022-10-23T10:58:34;16.90;82.10
67529;DHT22;54366;51.980;5.856;2022-10-23T11:01:16;16.90;82.00
67529;DHT22;54366;51.980;5.856;2022-10-23T11:03:48;16.90;82.10
67529;DHT22;54366;51.980;5.856;2022-10-23T11:06:20;17.00;81.40
67529;DHT22;54366;51.980;5.856;2022-10-23T11:08:48;17.00;81.30
67529;DHT22;54366;51.980;5.856;2022-10-23T11:11:19;17.00;81.10
67529;DHT22;54366;51.980;5.856;2022-10-23T11:13:48;17.10;81.30
67529;DHT22;54366;51.980;5.856;2022-10-23T11:16:26;17.10;81.10
67529;DHT22;54366;51.980;5.856;2022-10-23T11:19:13;17.20;81.10
67529;DHT22;54366;51.980;5.856;2022-10-23T11:29:31;17.30;80.40
67529;DHT22;54366;51.980;5.856;2022-10-23T11:35:07;17.40;80.20
67529;DHT22;54366;51.980;5.856;2022-10-23T11:37:38;17.40;80.10
67529;DHT22;54366;51.980;5.856;2022-10-23T11:45:31;17.60;79.60
67529;DHT22;54366;51.980;5.856;2022-10-23T11:58:40;17.80;78.40
67529;DHT22;54366;51.980;5.856;2022-10-23T12:06:49;18.00;78.60
67529;DHT22;54366;51.980;5.856;2022-10-23T12:09:23;18.00;78.40
67529;DHT22;54366;51.980;5.856;2022-10-23T12:14:43;18.10;78.10
67529;DHT22;54366;51.980;5.856;2022-10-23T12:19:50;18.30;78.30
67529;DHT22;54366;51.980;5.856;2022-10-23T12:22:17;18.30;78.20
67529;DHT22;54366;51.980;5.856;2022-10-23T12:25:18;18.40;77.60
67529;DHT22;54366;51.980;5.856;2022-10-23T12:28:06;18.50;77.60
67529;DHT22;54366;51.980;5.856;2022-10-23T12:30:41;18.60;78.00
67529;DHT22;54366;51.980;5.856;2022-10-23T12:33:23;18.60;77.80
67529;DHT22;54366;51.980;5.856;2022-10-23T12:38:43;18.80;77.50
67529;DHT22;54366;51.980;5.856;2022-10-23T12:41:26;18.70;77.40
67529;DHT22;54366;51.980;5.856;2022-10-23T12:44:03;18.70;77.60
67529;DHT22;54366;51.980;5.856;2022-10-23T12:46:40;18.80;77.70
67529;DHT22;54366;51.980;5.856;2022-10-23T12:49:17;18.80;78.00
67529;DHT22;54366;51.980;5.856;2022-10-23T12:51:43;18.80;76.80
67529;DHT22;54366;51.980;5.856;2022-10-23T12:54:18;18.80;77.00
67529;DHT22;54366;51.980;5.856;2022-10-23T12:56:45;18.80;77.00
67529;DHT22;54366;51.980;5.856;2022-10-23T12:59:20;18.90;76.70
67529;DHT22;54366;51.980;5.856;2022-10-23T13:01:48;18.90;76.80
67529;DHT22;54366;51.980;5.856;2022-10-23T13:06:52;18.90;77.10
67529;DHT22;54366;51.980;5.856;2022-10-23T13:09:28;19.00;77.00
67529;DHT22;54366;51.980;5.856;2022-10-23T13:12:18;19.00;77.00
67529;DHT22;54366;51.980;5.856;2022-10-23T13:22:46;19.10;76.70
67529;DHT22;54366;51.980;5.856;2022-10-23T13:25:30;19.10;77.10
67529;DHT22;54366;51.980;5.856;2022-10-23T13:28:19;19.10;76.60
67529;DHT22;54366;51.980;5.856;2022-10-23T13:33:48;19.10;77.30
67529;DHT22;54366;51.980;5.856;2022-10-23T13:38:57;19.10;77.20
67529;DHT22;54366;51.980;5.856;2022-10-23T13:41:25;19.20;76.40
67529;DHT22;54366;51.980;5.856;2022-10-23T13:43:51;19.10;76.40
67529;DHT22;54366;51.980;5.856;2022-10-23T13:46:22;19.20;76.80
67529;DHT22;54366;51.980;5.856;2022-10-23T13:48:50;19.10;76.70
67529;DHT22;54366;51.980;5.856;2022-10-23T13:53:45;19.20;76.80
67529;DHT22;54366;51.980;5.856;2022-10-23T13:56:12;19.20;76.30
67529;DHT22;54366;51.980;5.856;2022-10-23T13:58:39;19.20;76.10
67529;DHT22;54366;51.980;5.856;2022-10-23T14:01:05;19.20;75.10
67529;DHT22;54366;51.980;5.856;2022-10-23T14:03:37;19.30;75.50
67529;DHT22;54366;51.980;5.856;2022-10-23T14:06:03;19.20;75.80
67529;DHT22;54366;51.980;5.856;2022-10-23T14:08:29;19.30;75.60
67529;DHT22;54366;51.980;5.856;2022-10-23T14:10:55;19.30;75.20
67529;DHT22;54366;51.980;5.856;2022-10-23T14:13:22;19.30;75.20
67529;DHT22;54366;51.980;5.856;2022-10-23T14:15:54;19.20;75.40
67529;DHT22;54366;51.980;5.856;2022-10-23T14:18:21;19.30;75.60
67529;DHT22;54366;51.980;5.856;2022-10-23T14:20:47;19.30;75.60
67529;DHT22;54366;51.980;5.856;2022-10-23T14:23:14;19.30;75.40
67529;DHT22;54366;51.980;5.856;2022-10-23T14:25:40;19.30;75.50
67529;DHT22;54366;51.980;5.856;2022-10-23T14:28:06;19.30;75.80
67529;DHT22;54366;51.980;5.856;2022-10-23T14:30:35;19.30;75.60
67529;DHT22;54366;51.980;5.856;2022-10-23T14:33:02;19.30;75.80
67529;DHT22;54366;51.980;5.856;2022-10-23T14:35:28;19.30;74.40
67529;DHT22;54366;51.980;5.856;2022-10-23T14:37:54;19.30;74.50
67529;DHT22;54366;51.980;5.856;2022-10-23T14:40:20;19.30;74.30
67529;DHT22;54366;51.980;5.856;2022-10-23T14:42:47;19.30;74.70
67529;DHT22;54366;51.980;5.856;2022-10-23T14:45:13;19.30;74.70
67529;DHT22;54366;51.980;5.856;2022-10-23T14:47:39;19.30;75.00
67529;DHT22;54366;51.980;5.856;2022-10-23T14:50:06;19.30;74.80
67529;DHT22;54366;51.980;5.856;2022-10-23T14:52:32;19.30;75.00
67529;DHT22;54366;51.980;5.856;2022-10-23T14:54:58;19.30;75.30
67529;DHT22;54366;51.980;5.856;2022-10-23T14:57:26;19.30;74.60
67529;DHT22;54366;51.980;5.856;2022-10-23T14:59:52;19.30;75.10
67529;DHT22;54366;51.980;5.856;2022-10-23T15:02:19;19.20;75.10
67529;DHT22;54366;51.980;5.856;2022-10-23T15:04:45;19.30;75.40
67529;DHT22;54366;51.980;5.856;2022-10-23T15:07:11;19.20;75.60
67529;DHT22;54366;51.980;5.856;2022-10-23T15:09:37;19.20;75.60
67529;DHT22;54366;51.980;5.856;2022-10-23T15:12:05;19.10;75.70
67529;DHT22;54366;51.980;5.856;2022-10-23T15:14:33;19.10;75.90
67529;DHT22;54366;51.980;5.856;2022-10-23T15:16:59;19.10;76.00
67529;DHT22;54366;51.980;5.856;2022-10-23T15:19:25;19.00;76.10
67529;DHT22;54366;51.980;5.856;2022-10-23T15:21:52;19.00;76.20
67529;DHT22;54366;51.980;5.856;2022-10-23T15:24:18;19.00;76.00
67529;DHT22;54366;51.980;5.856;2022-10-23T15:26:46;19.00;75.90
67529;DHT22;54366;51.980;5.856;2022-10-23T15:29:13;19.00;76.00
67529;DHT22;54366;51.980;5.856;2022-10-23T15:31:42;19.00;76.10
67529;DHT22;54366;51.980;5.856;2022-10-23T15:34:10;19.00;76.30
67529;DHT22;54366;51.980;5.856;2022-10-23T15:36:37;19.00;76.40
67529;DHT22;54366;51.980;5.856;2022-10-23T15:39:08;19.00;76.40
67529;DHT22;54366;51.980;5.856;2022-10-23T15:41:36;18.90;76.40
67529;DHT22;54366;51.980;5.856;2022-10-23T15:44:04;18.90;76.50
67529;DHT22;54366;51.980;5.856;2022-10-23T15:46:30;18.90;76.40
67529;DHT22;54366;51.980;5.856;2022-10-23T15:48:57;18.90;76.40
67529;DHT22;54366;51.980;5.856;2022-10-23T15:51:23;18.80;76.40
67529;DHT22;54366;51.980;5.856;2022-10-23T15:53:50;18.80;76.40
67529;DHT22;54366;51.980;5.856;2022-10-23T15:56:16;18.80;76.40
67529;DHT22;54366;51.980;5.856;2022-10-23T15:58:43;18.70;76.50
67529;DHT22;54366;51.980;5.856;2022-10-23T16:01:09;18.80;76.60
67529;DHT22;54366;51.980;5.856;2022-10-23T16:03:37;18.70;76.70
67529;DHT22;54366;51.980;5.856;2022-10-23T16:06:11;18.70;76.80
67529;DHT22;54366;51.980;5.856;2022-10-23T16:08:37;18.60;76.60
67529;DHT22;54366;51.980;5.856;2022-10-23T16:13:40;18.60;76.50
67529;DHT22;54366;51.980;5.856;2022-10-23T16:16:06;18.60;76.60
67529;DHT22;54366;51.980;5.856;2022-10-23T16:18:32;18.60;76.60
67529;DHT22;54366;51.980;5.856;2022-10-23T16:20:58;18.50;76.40
67529;DHT22;54366;51.980;5.856;2022-10-23T16:23:25;18.50;76.60
67529;DHT22;54366;51.980;5.856;2022-10-23T16:25:54;18.50;76.70
67529;DHT22;54366;51.980;5.856;2022-10-23T16:28:20;18.50;76.70
67529;DHT22;54366;51.980;5.856;2022-10-23T16:30:46;18.50;76.60
67529;DHT22;54366;51.980;5.856;2022-10-23T16:33:12;18.50;76.70
67529;DHT22;54366;51.980;5.856;2022-10-23T16:35:39;18.50;76.70
67529;DHT22;54366;51.980;5.856;2022-10-23T16:38:14;18.50;76.70
67529;DHT22;54366;51.980;5.856;2022-10-23T16:40:40;18.40;76.70
67529;DHT22;54366;51.980;5.856;2022-10-23T16:43:44;18.50;76.70
67529;DHT22;54366;51.980;5.856;2022-10-23T16:46:40;18.50;76.70
67529;DHT22;54366;51.980;5.856;2022-10-23T16:49:06;18.40;76.80
67529;DHT22;54366;51.980;5.856;2022-10-23T16:51:34;18.40;76.80
67529;DHT22;54366;51.980;5.856;2022-10-23T16:54:00;18.40;76.90
67529;DHT22;54366;51.980;5.856;2022-10-23T16:56:28;18.40;77.00
67529;DHT22;54366;51.980;5.856;2022-10-23T16:58:55;18.30;77.00
67529;DHT22;54366;51.980;5.856;2022-10-23T17:01:24;18.30;77.10
67529;DHT22;54366;51.980;5.856;2022-10-23T17:03:53;18.30;77.20
67529;DHT22;54366;51.980;5.856;2022-10-23T17:06:21;18.30;77.20
67529;DHT22;54366;51.980;5.856;2022-10-23T17:08:48;18.30;77.40
67529;DHT22;54366;51.980;5.856;2022-10-23T17:11:25;18.20;77.40
67529;DHT22;54366;51.980;5.856;2022-10-23T17:13:58;18.30;77.50
67529;DHT22;54366;51.980;5.856;2022-10-23T17:16:27;18.20;77.60
67529;DHT22;54366;51.980;5.856;2022-10-23T17:18:54;18.20;77.60
67529;DHT22;54366;51.980;5.856;2022-10-23T17:21:21;18.20;77.60
67529;DHT22;54366;51.980;5.856;2022-10-23T17:23:49;18.20;77.60
67529;DHT22;54366;51.980;5.856;2022-10-23T17:26:17;18.20;77.60
67529;DHT22;54366;51.980;5.856;2022-10-23T17:28:44;18.20;77.70
67529;DHT22;54366;51.980;5.856;2022-10-23T17:31:19;18.10;77.60
67529;DHT22;54366;51.980;5.856;2022-10-23T17:33:47;18.20;77.70
67529;DHT22;54366;51.980;5.856;2022-10-23T17:36:15;18.20;77.70
67529;DHT22;54366;51.980;5.856;2022-10-23T17:38:42;18.20;77.70
67529;DHT22;54366;51.980;5.856;2022-10-23T17:41:13;18.20;77.70
67529;DHT22;54366;51.980;5.856;2022-10-23T17:43:40;18.10;77.70
67529;DHT22;54366;51.980;5.856;2022-10-23T17:46:08;18.20;77.80
67529;DHT22;54366;51.980;5.856;2022-10-23T17:48:35;18.20;77.70
67529;DHT22;54366;51.980;5.856;2022-10-23T17:51:11;18.20;77.80
67529;DHT22;54366;51.980;5.856;2022-10-23T17:53:40;18.20;77.90
67529;DHT22;54366;51.980;5.856;2022-10-23T17:56:09;18.10;77.90
67529;DHT22;54366;51.980;5.856;2022-10-23T17:58:36;18.10;77.90
67529;DHT22;54366;51.980;5.856;2022-10-23T18:01:04;18.10;77.90
67529;DHT22;54366;51.980;5.856;2022-10-23T18:03:31;18.10;78.00
67529;DHT22;54366;51.980;5.856;2022-10-23T18:06:23;18.20;78.10
67529;DHT22;54366;51.980;5.856;2022-10-23T18:08:51;18.20;78.10
67529;DHT22;54366;51.980;5.856;2022-10-23T18:11:24;18.20;78.10
67529;DHT22;54366;51.980;5.856;2022-10-23T18:13:51;18.20;78.20
67529;DHT22;54366;51.980;5.856;2022-10-23T18:16:18;18.20;78.20
67529;DHT22;54366;51.980;5.856;2022-10-23T18:18:45;18.20;78.40
67529;DHT22;54366;51.980;5.856;2022-10-23T18:21:18;18.20;78.40
67529;DHT22;54366;51.980;5.856;2022-10-23T18:23:45;18.20;78.40
67529;DHT22;54366;51.980;5.856;2022-10-23T18:26:23;18.20;78.40
67529;DHT22;54366;51.980;5.856;2022-10-23T18:28:52;18.20;78.40